Time;durP1;ratioP1;P1;durP2;ratioP2;P2;SDS_P1;SDS_P2;PMS_P1;PMS_P2;Temp;Humidity;BMP_temperature;BMP_pressure;BME280_temperature;BME280_humidity;BME280_pressure;Samples;Min_cycle;Max_cycle;Signal;HPM_P1;HPM_P2
2023/06/12 00:00:32;;;;;;;5.55;4.40;;;;;;;20.19;44.25;96541.19;4985240;28;20054;-88
2023/06/12 00:03:02;;;;;;;4.70;4.20;;;;;;;20.19;44.27;96543.81;4985413;28;20100;-87
2023/06/12 00:05:31;;;;;;;5.10;4.38;;;;;;;20.17;44.64;96536.91;4983479;28;20219;-89
2023/06/12 00:08:00;;;;;;;4.45;4.05;;;;;;;20.16;44.56;96535.31;4986195;28;20138;-87
2023/06/12 00:10:28;;;;;;;6.40;4.75;;;;;;;20.15;44.59;96539.00;4985520;28;20077;-87
2023/06/12 00:12:56;;;;;;;4.78;4.28;;;;;;;20.15;44.92;96541.66;4983764;28;20078;-89
2023/06/12 00:15:24;;;;;;;5.25;4.38;;;;;;;20.15;44.81;96544.28;4983272;28;20050;-87
2023/06/12 00:17:51;;;;;;;4.88;4.22;;;;;;;20.11;45.10;96545.81;4983509;28;20051;-87
2023/06/12 00:20:22;;;;;;;4.78;4.30;;;;;;;20.06;45.39;96537.81;4982564;28;20527;-85
2023/06/12 00:22:50;;;;;;;5.00;4.05;;;;;;;20.08;45.44;96542.88;4983261;28;20058;-86
2023/06/12 00:25:19;;;;;;;4.22;3.90;;;;;;;20.05;45.22;96548.66;4982471;28;20058;-87
2023/06/12 00:27:47;;;;;;;5.43;4.72;;;;;;;19.99;45.69;96539.84;4983162;28;20055;-84
2023/06/12 00:30:15;;;;;;;4.60;4.18;;;;;;;19.96;45.57;96541.13;4983354;28;20043;-88
2023/06/12 00:32:43;;;;;;;5.18;4.57;;;;;;;19.91;45.89;96543.69;4983802;28;20058;-87
2023/06/12 00:35:12;;;;;;;5.00;4.25;;;;;;;19.87;46.14;96542.56;4984938;28;20050;-84
2023/06/12 00:37:42;;;;;;;4.47;4.07;;;;;;;19.84;46.49;96542.25;4983988;28;20055;-89
2023/06/12 00:40:11;;;;;;;4.82;4.32;;;;;;;19.85;46.41;96546.50;4982091;28;20054;-86
2023/06/12 00:42:45;;;;;;;4.82;4.43;;;;;;;19.87;46.79;96547.06;4983863;28;20046;-86
2023/06/12 00:45:14;;;;;;;5.10;4.47;;;;;;;19.86;46.47;96540.19;4982800;28;20047;-85
2023/06/12 00:47:43;;;;;;;7.90;4.50;;;;;;;19.85;46.75;96543.84;4981895;28;20117;-87
2023/06/12 00:50:13;;;;;;;4.80;4.40;;;;;;;19.85;46.66;96543.84;4982122;28;20129;-83
2023/06/12 00:52:47;;;;;;;5.90;5.30;;;;;;;19.86;47.07;96537.53;4982825;28;20105;-87
2023/06/12 00:55:16;;;;;;;5.10;4.20;;;;;;;19.82;47.29;96539.06;4982587;28;20058;-87
2023/06/12 00:57:46;;;;;;;4.65;4.13;;;;;;;19.83;47.25;96540.66;4981896;28;20510;-84
2023/06/12 01:00:16;;;;;;;4.90;4.50;;;;;;;19.87;47.39;96534.63;4981806;28;20047;-86
2023/06/12 01:02:48;;;;;;;5.15;4.65;;;;;;;19.91;47.55;96529.66;4981410;28;20059;-88
2023/06/12 01:05:19;;;;;;;4.93;4.47;;;;;;;19.95;47.53;96536.88;4981572;28;20499;-84
2023/06/12 01:07:55;;;;;;;6.03;4.38;;;;;;;19.96;47.62;96540.31;4982803;28;20067;-87
2023/06/12 01:10:30;;;;;;;5.00;4.45;;;;;;;19.97;47.74;96536.63;4984289;28;20047;-88
2023/06/12 01:12:58;;;;;;;6.50;4.40;;;;;;;19.98;47.75;96532.94;4986184;28;20054;-87
2023/06/12 01:15:26;;;;;;;5.05;4.55;;;;;;;19.99;47.66;96531.09;4984551;28;20055;-87
2023/06/12 01:17:54;;;;;;;4.93;4.47;;;;;;;19.97;47.87;96534.00;4983956;28;20055;-89
2023/06/12 01:20:22;;;;;;;7.25;4.53;;;;;;;19.93;47.97;96540.81;4984805;28;20137;-86
2023/06/12 01:23:00;;;;;;;6.68;4.47;;;;;;;19.94;48.33;96534.47;4984641;28;20077;-84
2023/06/12 01:26:08;;;;;;;4.75;4.22;;;;;;;19.91;48.26;96534.94;4983945;28;20510;-86
2023/06/12 01:29:03;;;;;;;4.63;4.00;;;;;;;19.90;48.50;96536.00;4978686;28;20061;-83
2023/06/12 01:31:36;;;;;;;4.82;4.10;;;;;;;19.89;48.45;96529.09;4981560;28;20462;-88
2023/06/12 01:34:12;;;;;;;6.10;4.35;;;;;;;19.86;48.61;96543.63;4981467;28;20098;-86
2023/06/12 01:36:44;;;;;;;6.85;4.18;;;;;;;19.84;48.45;96535.13;4984438;28;20070;-88
2023/06/12 01:39:15;;;;;;;5.15;4.13;;;;;;;19.82;48.47;96533.75;4986578;28;20046;-88
2023/06/12 01:41:45;;;;;;;5.32;4.82;;;;;;;19.83;48.55;96535.34;4986625;28;20055;-89
2023/06/12 01:44:16;;;;;;;5.70;5.10;;;;;;;19.79;48.73;96531.59;4989690;28;20113;-88
2023/06/12 01:46:44;;;;;;;5.22;4.72;;;;;;;19.79;48.83;96528.94;4988784;28;20073;-89
2023/06/12 01:49:14;;;;;;;4.60;4.30;;;;;;;19.83;48.68;96530.06;4988024;28;20050;-87
2023/06/12 01:51:42;;;;;;;4.28;3.90;;;;;;;19.80;48.75;96526.06;4988136;28;20051;-87
2023/06/12 01:54:11;;;;;;;6.53;5.22;;;;;;;19.76;48.83;96525.72;4987499;28;20430;-87
2023/06/12 01:56:39;;;;;;;4.93;4.53;;;;;;;19.72;48.90;96524.63;4988840;28;20063;-85
2023/06/12 01:59:07;;;;;;;5.18;4.68;;;;;;;19.68;49.11;96522.69;4989090;28;20086;-88
2023/06/12 02:01:35;;;;;;;5.22;4.72;;;;;;;19.67;49.27;96527.16;4989835;28;20118;-88
2023/06/12 02:04:04;;;;;;;5.15;4.47;;;;;;;19.64;49.29;96525.00;4988500;28;20055;-87
2023/06/12 02:06:34;;;;;;;5.15;4.65;;;;;;;19.58;49.65;96522.53;4988266;28;20134;-86
2023/06/12 02:09:02;;;;;;;5.35;4.90;;;;;;;19.52;49.74;96519.78;4988583;28;20051;-87
2023/06/12 02:11:30;;;;;;;6.53;5.18;;;;;;;19.52;49.69;96530.34;4996942;28;20035;-90
2023/06/12 02:13:59;;;;;;;6.78;4.50;;;;;;;19.46;49.93;96531.34;4998732;28;20106;-90
2023/06/12 02:16:27;;;;;;;5.97;5.05;;;;;;;19.40;50.20;96531.50;4992903;28;20533;-89
2023/06/12 02:18:55;;;;;;;7.50;4.80;;;;;;;19.34;50.40;96534.03;4990317;28;20122;-89
2023/06/12 02:21:23;;;;;;;6.07;4.95;;;;;;;19.30;50.54;96532.91;4988413;28;20047;-89
2023/06/12 02:23:55;;;;;;;8.18;5.15;;;;;;;19.31;50.47;96533.72;4988856;28;20051;-89
2023/06/12 02:26:23;;;;;;;5.07;4.67;;;;;;;19.30;50.52;96530.25;4986458;28;20055;-88
2023/06/12 02:29:07;;;;;;;5.32;4.85;;;;;;;19.35;50.64;96529.56;4986607;28;20046;-89
2023/06/12 02:31:35;;;;;;;5.55;5.05;;;;;;;19.34;50.42;96527.94;4986349;28;20054;-86
2023/06/12 02:34:04;;;;;;;4.95;4.55;;;;;;;19.35;50.77;96532.22;4987653;28;20070;-88
2023/06/12 02:36:33;;;;;;;5.95;5.45;;;;;;;19.37;50.59;96522.16;4986492;28;20089;-85
2023/06/12 02:39:12;;;;;;;5.38;4.90;;;;;;;19.31;50.83;96531.88;5063581;23;20716;-80
2023/06/12 02:41:43;;;;;;;5.43;5.03;;;;;;;19.25;50.93;96529.38;5004711;28;20030;-78
2023/06/12 02:44:18;;;;;;;5.68;5.20;;;;;;;19.18;51.23;96524.25;5025785;23;20039;-80
2023/06/12 02:46:54;;;;;;;6.53;5.32;;;;;;;19.16;51.57;96523.69;4982217;28;20046;-79
2023/06/12 02:49:32;;;;;;;5.47;5.03;;;;;;;19.14;51.39;96518.63;4982180;28;20031;-79
2023/06/12 02:52:08;;;;;;;5.75;4.95;;;;;;;19.12;51.56;96522.56;4982223;28;20045;-79
2023/06/12 02:54:46;;;;;;;5.40;4.90;;;;;;;19.06;51.78;96526.13;4981097;28;20059;-80
2023/06/12 02:57:16;;;;;;;6.20;5.30;;;;;;;19.03;51.80;96521.34;4981963;28;20031;-78
2023/06/12 02:59:45;;;;;;;5.50;5.07;;;;;;;19.02;51.88;96525.00;4981925;28;20055;-80
2023/06/12 03:02:17;;;;;;;5.10;4.65;;;;;;;19.01;51.95;96534.00;4982044;28;20047;-79
2023/06/12 03:04:47;;;;;;;6.68;5.40;;;;;;;19.03;51.96;96527.41;4982051;28;20035;-79
2023/06/12 03:07:18;;;;;;;5.53;5.03;;;;;;;19.05;52.00;96530.63;4965295;28;20031;-79
2023/06/12 03:10:08;;;;;;;6.45;5.85;;;;;;;19.06;51.91;96536.72;4981718;28;20032;-79
2023/06/12 03:15:39;;;;;;;5.60;5.10;;;;;;;19.16;51.77;96547.47;4903664;26;20038;-79
2023/06/12 03:18:11;;;;;;;5.32;4.82;;;;;;;19.18;51.63;96545.41;5020333;28;20037;-79
2023/06/12 03:20:46;;;;;;;5.75;5.25;;;;;;;19.24;51.31;96543.63;5019993;28;20077;-79
2023/06/12 03:23:23;;;;;;;6.45;4.97;;;;;;;19.23;50.96;96558.72;5004834;28;20034;-79
2023/06/12 03:26:00;;;;;;;5.93;5.28;;;;;;;19.20;51.85;96556.56;5057268;23;20034;-79
2023/06/12 03:28:34;;;;;;;6.45;5.63;;;;;;;19.14;50.81;96545.06;5004094;28;20034;-79
2023/06/12 03:31:06;;;;;;;6.28;5.22;;;;;;;19.13;51.02;96550.59;5000348;28;20043;-79
2023/06/12 03:33:40;;;;;;;5.22;4.72;;;;;;;19.11;51.34;96552.66;5000788;28;20035;-80
2023/06/12 03:36:13;;;;;;;6.07;5.47;;;;;;;19.07;50.60;96549.72;5022610;23;20039;-79
2023/06/12 03:38:44;;;;;;;7.40;5.97;;;;;;;18.95;50.86;96546.28;5020166;28;20034;-79
2023/06/12 03:41:22;;;;;;;6.35;5.75;;;;;;;18.79;51.18;96555.78;5020262;28;20046;-79
2023/06/12 03:43:52;;;;;;;10.23;6.97;;;;;;;18.64;51.35;96555.47;5019811;28;20035;-79
2023/06/12 03:46:21;;;;;;;6.30;5.70;;;;;;;18.48;51.82;96562.28;5019829;28;20030;-79
2023/06/12 03:48:50;;;;;;;7.65;6.10;;;;;;;18.37;52.19;96561.25;5019793;28;20105;-80
2023/06/12 03:51:19;;;;;;;9.40;6.15;;;;;;;18.30;52.85;96566.66;5019406;28;20040;-79
2023/06/12 03:53:48;;;;;;;7.18;6.47;;;;;;;18.28;53.24;96560.81;5019862;28;20034;-79
2023/06/12 03:56:18;;;;;;;6.93;6.28;;;;;;;18.26;53.05;96560.22;5003021;28;20030;-79
2023/06/12 03:58:46;;;;;;;6.97;6.25;;;;;;;18.22;53.05;96560.94;5019519;28;20082;-79
2023/06/12 04:01:16;;;;;;;6.75;5.80;;;;;;;18.21;54.22;96568.03;5018482;28;20034;-81
2023/06/12 04:03:48;;;;;;;5.90;5.13;;;;;;;18.26;54.18;96565.50;5016096;28;20057;-79
2023/06/12 04:06:24;;;;;;;7.20;5.50;;;;;;;18.35;54.19;96563.31;5019369;28;20057;-79
2023/06/12 04:08:56;;;;;;;5.55;5.05;;;;;;;18.45;53.74;96568.81;5260433;23;20061;-81
2023/06/12 04:11:29;;;;;;;7.40;6.65;;;;;;;18.52;53.12;96569.50;5018908;28;20050;-81
2023/06/12 04:13:58;;;;;;;;;;;;;;;18.55;52.98;96567.44;5019644;28;20082;-80
2023/06/12 04:16:28;;;;;;;7.25;6.10;;;;;;;18.53;52.90;96560.53;5019400;28;19937;-79
2023/06/12 04:19:03;;;;;;;7.93;6.80;;;;;;;18.46;52.87;96573.06;5003106;28;20030;-80
2023/06/12 04:21:35;;;;;;;8.75;6.60;;;;;;;18.41;53.31;96565.03;5019016;28;20046;-79
2023/06/12 04:24:15;;;;;;;6.65;5.75;;;;;;;18.43;53.73;96570.91;5018298;23;20050;-85
2023/06/12 04:26:46;;;;;;;8.43;5.78;;;;;;;18.50;53.78;96576.06;5001410;28;20050;-88
2023/06/12 04:29:15;;;;;;;7.38;6.57;;;;;;;18.50;53.29;96570.78;5003164;28;20106;-89
2023/06/12 04:31:43;;;;;;;7.00;6.28;;;;;;;18.45;53.61;96574.09;5002700;28;20047;-84
2023/06/12 04:34:15;;;;;;;6.90;6.30;;;;;;;18.45;53.66;96576.72;4991603;28;20069;-87
2023/06/12 04:36:45;;;;;;;8.82;6.57;;;;;;;18.39;53.72;96575.03;4997752;28;20054;-84
2023/06/12 04:39:13;;;;;;;7.65;6.85;;;;;;;18.32;53.96;96579.63;4993386;28;20494;-84
2023/06/12 04:41:42;;;;;;;7.57;6.88;;;;;;;18.29;54.12;96575.59;5001546;28;20387;-88
2023/06/12 04:44:34;;;;;;;6.43;5.65;;;;;;;18.33;54.92;96587.31;5000046;28;20553;-87
2023/06/12 04:47:07;;;;;;;8.25;6.63;;;;;;;18.34;54.49;96582.81;5001985;28;20050;-88
2023/06/12 04:49:48;;;;;;;7.90;6.25;;;;;;;18.39;55.14;96585.59;4996461;28;20055;-85
2023/06/12 04:52:40;;;;;;;5.32;4.82;;;;;;;18.47;55.54;96581.78;4996897;28;20046;-89
2023/06/12 04:55:11;;;;;;;9.25;6.68;;;;;;;18.48;54.89;96583.41;4999448;28;20058;-86
2023/06/12 04:57:53;;;;;;;6.38;5.78;;;;;;;18.52;55.74;96588.00;4998608;28;20042;-87
2023/06/12 05:00:28;;;;;;;8.38;6.07;;;;;;;18.60;55.15;96591.31;4998244;28;20058;-85
2023/06/12 05:02:58;;;;;;;7.28;6.53;;;;;;;18.63;54.88;96590.81;4998016;28;20104;-87
2023/06/12 05:05:29;;;;;;;7.22;6.40;;;;;;;18.65;54.91;96588.75;4998439;28;20042;-84
2023/06/12 05:08:02;;;;;;;5.97;5.47;;;;;;;18.69;55.56;96597.81;4996333;28;20090;-88
2023/06/12 05:10:30;;;;;;;6.38;5.70;;;;;;;18.75;55.48;96596.91;5009657;28;20069;-88
2023/06/12 05:13:04;;;;;;;6.72;6.03;;;;;;;18.81;55.65;96601.28;5010716;28;20055;-87
2023/06/12 05:15:34;;;;;;;6.70;6.10;;;;;;;18.87;54.98;96605.63;4993315;28;20050;-89
2023/06/12 05:18:02;;;;;;;7.10;6.40;;;;;;;18.90;54.81;96613.09;5006585;28;20057;-88
2023/06/12 05:20:31;;;;;;;7.68;6.97;;;;;;;18.88;54.79;96609.06;5010387;28;20051;-89
2023/06/12 05:22:59;;;;;;;6.68;6.07;;;;;;;18.89;55.05;96614.13;5003253;28;20137;-88
2023/06/12 05:25:27;;;;;;;7.15;6.50;;;;;;;18.90;54.79;96607.00;5011438;28;20058;-87
2023/06/12 05:27:55;;;;;;;6.63;6.03;;;;;;;18.91;55.01;96617.34;5012762;28;20056;-87
2023/06/12 05:30:23;;;;;;;6.68;6.05;;;;;;;18.97;55.00;96620.09;5011068;28;20046;-87
2023/06/12 05:32:52;;;;;;;7.03;6.03;;;;;;;19.02;55.30;96621.00;5016774;28;20046;-86
2023/06/12 05:35:21;;;;;;;7.35;6.10;;;;;;;19.07;55.20;96620.28;5019276;28;20038;-88
2023/06/12 05:37:49;;;;;;;9.52;6.35;;;;;;;19.07;54.92;96620.28;5019730;28;20035;-85
2023/06/12 05:40:17;;;;;;;9.80;6.60;;;;;;;19.08;55.15;96624.53;5020014;28;20057;-84
2023/06/12 05:42:47;;;;;;;6.68;6.07;;;;;;;19.13;55.22;96627.25;5020565;28;20050;-88
2023/06/12 05:45:15;;;;;;;7.40;6.45;;;;;;;19.17;54.79;96627.59;5011502;28;20129;-90
2023/06/12 05:47:43;;;;;;;9.30;6.55;;;;;;;19.21;54.72;96618.16;5012801;28;20054;-90
2023/06/12 05:50:13;;;;;;;8.20;7.25;;;;;;;19.21;55.03;96632.19;5013183;28;20034;-89
2023/06/12 05:52:42;;;;;;;9.75;7.43;;;;;;;19.23;55.00;96614.25;5012464;28;20050;-87
2023/06/12 05:55:10;;;;;;;11.93;7.32;;;;;;;19.25;55.15;96620.09;5013071;28;20055;-90
2023/06/12 05:57:39;;;;;;;7.82;6.30;;;;;;;19.29;55.03;96617.78;5011841;28;20050;-88
2023/06/12 06:00:12;;;;;;;8.35;6.45;;;;;;;19.33;55.33;96611.00;5011308;28;20051;-89
2023/06/12 06:02:42;;;;;;;7.93;6.22;;;;;;;19.37;55.45;96609.44;5011442;28;20415;-90
2023/06/12 06:05:11;;;;;;;6.75;5.90;;;;;;;19.41;55.24;96610.59;5012535;28;20058;-91
2023/06/12 06:07:41;;;;;;;6.68;6.07;;;;;;;19.45;55.14;96610.94;5020642;28;20070;-85
2023/06/12 06:10:10;;;;;;;6.97;5.63;;;;;;;19.47;55.04;96606.19;5020604;28;20062;-86
2023/06/12 06:12:38;;;;;;;7.63;6.30;;;;;;;19.48;54.94;96608.63;5018306;28;20030;-88
2023/06/12 06:15:08;;;;;;;7.25;5.95;;;;;;;19.47;54.93;96614.94;5017837;28;20054;-87
2023/06/12 06:17:36;;;;;;;9.15;5.90;;;;;;;19.48;54.74;96610.44;5009653;28;20537;-91
2023/06/12 06:20:06;;;;;;;8.38;6.22;;;;;;;19.50;54.78;96614.47;5014480;28;20069;-88
2023/06/12 06:22:34;;;;;;;7.35;6.20;;;;;;;19.53;54.17;96615.84;5012362;28;20052;-89
2023/06/12 06:25:04;;;;;;;6.78;6.18;;;;;;;19.53;54.36;96627.22;5011936;28;20058;-89
2023/06/12 06:27:32;;;;;;;6.53;5.85;;;;;;;19.56;54.60;96615.34;5011602;28;20054;-89
2023/06/12 06:30:00;;;;;;;8.68;6.63;;;;;;;19.62;54.53;96618.91;5010628;28;20460;-89
2023/06/12 06:32:28;;;;;;;8.98;5.75;;;;;;;19.67;54.40;96625.06;5012386;28;20050;-90
2023/06/12 06:34:57;;;;;;;7.68;6.28;;;;;;;19.72;54.15;96625.19;5010943;28;20074;-90
2023/06/12 06:37:25;;;;;;;6.85;6.25;;;;;;;19.74;53.71;96628.41;5011211;28;20065;-90
2023/06/12 06:39:56;;;;;;;6.47;5.82;;;;;;;19.79;53.40;96630.34;5009617;28;20060;-90
2023/06/12 06:42:29;;;;;;;6.72;6.07;;;;;;;19.82;53.06;96624.56;5009650;28;20118;-87
2023/06/12 06:44:57;;;;;;;7.57;6.03;;;;;;;19.85;52.69;96629.34;5010089;28;20046;-88
2023/06/12 06:47:25;;;;;;;12.20;6.28;;;;;;;19.89;52.33;96622.53;5009185;28;20051;-89
2023/06/12 06:49:56;;;;;;;11.32;6.40;;;;;;;19.94;52.32;96627.13;5012842;28;20430;-89
2023/06/12 06:52:24;;;;;;;14.05;5.93;;;;;;;20.00;52.45;96633.31;5010749;28;20073;-90
2023/06/12 06:54:53;;;;;;;7.80;6.20;;;;;;;20.07;52.21;96632.13;5010891;28;20054;-90
2023/06/12 06:57:22;;;;;;;7.35;5.50;;;;;;;20.15;52.26;96634.34;5012776;28;20118;-89
2023/06/12 06:59:54;;;;;;;7.10;6.38;;;;;;;20.24;51.86;96634.72;5011497;28;20417;-87
2023/06/12 07:02:23;;;;;;;7.63;5.72;;;;;;;20.30;51.61;96625.81;5010207;28;20058;-89
2023/06/12 07:04:51;;;;;;;7.38;5.80;;;;;;;20.39;51.69;96628.84;5009054;28;20058;-91
2023/06/12 07:07:19;;;;;;;6.97;6.28;;;;;;;20.46;51.21;96629.47;5011973;28;20026;-90
2023/06/12 07:09:47;;;;;;;7.15;5.80;;;;;;;20.50;51.10;96635.91;5009025;28;20057;-86
2023/06/12 07:12:16;;;;;;;11.18;5.88;;;;;;;20.54;50.76;96629.06;5007331;28;20042;-87
2023/06/12 07:14:44;;;;;;;8.93;5.35;;;;;;;20.59;50.79;96628.38;5009160;28;20077;-88
2023/06/12 07:17:13;;;;;;;8.82;5.90;;;;;;;20.66;50.56;96631.66;5008756;28;20112;-86
2023/06/12 07:19:42;;;;;;;6.55;5.90;;;;;;;20.73;50.40;96629.63;5011783;28;20081;-90
2023/06/12 07:22:13;;;;;;;7.50;6.22;;;;;;;20.80;50.15;96621.50;5017056;28;20046;-88
2023/06/12 07:24:42;;;;;;;6.38;5.78;;;;;;;20.87;49.63;96634.56;5019040;28;20050;-87
2023/06/12 07:27:10;;;;;;;6.20;5.60;;;;;;;20.93;49.68;96633.59;5017583;28;20040;-90
2023/06/12 07:29:38;;;;;;;6.82;6.00;;;;;;;20.97;49.49;96630.19;5016290;28;20313;-87
2023/06/12 07:32:07;;;;;;;6.65;6.00;;;;;;;21.04;49.60;96629.22;5014716;28;20061;-88
2023/06/12 07:34:36;;;;;;;6.40;5.80;;;;;;;21.12;49.47;96626.91;5011894;28;20134;-88
2023/06/12 07:37:05;;;;;;;7.90;5.75;;;;;;;21.22;48.66;96636.81;5010047;28;20066;-90
2023/06/12 07:39:33;;;;;;;7.38;5.22;;;;;;;21.32;48.31;96623.69;5010244;28;20050;-89
2023/06/12 07:42:01;;;;;;;11.50;6.47;;;;;;;21.43;47.74;96627.28;5009795;28;20046;-88
2023/06/12 07:44:30;;;;;;;5.60;5.10;;;;;;;21.52;47.29;96627.63;5009773;28;20049;-89
2023/06/12 07:46:59;;;;;;;9.50;5.40;;;;;;;21.58;46.26;96634.56;5007731;28;20537;-91
2023/06/12 07:49:27;;;;;;;6.18;5.40;;;;;;;21.63;46.45;96624.00;5007759;28;20053;-87
2023/06/12 07:51:57;;;;;;;7.78;5.60;;;;;;;21.71;46.68;96630.69;5007935;28;20080;-85
2023/06/12 07:54:25;;;;;;;5.88;5.32;;;;;;;21.81;46.10;96623.63;5007805;28;20058;-87
2023/06/12 07:56:53;;;;;;;5.88;5.07;;;;;;;21.91;45.52;96625.59;5006560;28;20074;-86
2023/06/12 07:59:21;;;;;;;5.35;4.93;;;;;;;21.99;44.71;96621.63;5006874;28;20061;-88
2023/06/12 08:01:49;;;;;;;6.80;5.22;;;;;;;22.05;44.03;96617.97;5006525;28;20051;-89
2023/06/12 08:04:17;;;;;;;6.10;4.70;;;;;;;22.11;44.05;96616.97;5005433;28;20050;-89
2023/06/12 08:06:47;;;;;;;6.10;5.50;;;;;;;22.20;44.34;96609.31;5004472;28;20122;-89
2023/06/12 08:09:17;;;;;;;6.38;5.40;;;;;;;22.29;43.61;96612.31;5003831;28;20054;-88
2023/06/12 08:11:48;;;;;;;8.45;4.88;;;;;;;22.37;43.63;96612.66;5004188;28;20046;-88
2023/06/12 08:14:17;;;;;;;5.82;4.88;;;;;;;22.46;42.92;96614.81;5003377;28;20050;-88
2023/06/12 08:16:46;;;;;;;5.50;4.93;;;;;;;22.57;42.43;96614.63;5004315;28;20058;-89
2023/06/12 08:19:14;;;;;;;4.72;4.22;;;;;;;22.67;41.81;96607.75;5004240;28;20074;-90
2023/06/12 08:21:42;;;;;;;6.53;4.80;;;;;;;22.73;41.75;96615.47;5004715;28;20114;-90
2023/06/12 08:24:13;;;;;;;6.03;5.00;;;;;;;22.79;40.86;96606.47;4987364;28;20066;-91
2023/06/12 08:26:42;;;;;;;6.53;4.63;;;;;;;22.86;40.16;96608.09;5002893;28;20054;-91
2023/06/12 08:29:12;;;;;;;6.15;4.93;;;;;;;22.92;40.75;96602.53;5002926;28;20057;-90
2023/06/12 08:31:41;;;;;;;6.13;4.68;;;;;;;23.01;40.66;96601.00;5003328;28;20459;-88
2023/06/12 08:34:09;;;;;;;4.93;4.43;;;;;;;23.00;40.12;96602.06;5002347;28;20592;-89
2023/06/12 08:36:38;;;;;;;5.85;4.70;;;;;;;22.98;40.63;96606.81;5003600;28;20477;-89
2023/06/12 08:39:06;;;;;;;6.10;5.03;;;;;;;23.00;40.61;96601.25;5012073;28;20053;-85
2023/06/12 08:41:38;;;;;;;5.30;4.88;;;;;;;23.02;40.89;96601.78;5008903;28;20081;-88
2023/06/12 08:44:09;;;;;;;5.93;4.60;;;;;;;23.09;39.19;96601.53;5016723;28;20050;-87
2023/06/12 08:46:37;;;;;;;5.03;4.50;;;;;;;23.15;38.13;96603.16;5014161;28;20048;-89
2023/06/12 08:49:05;;;;;;;5.70;4.97;;;;;;;23.18;37.41;96602.66;5008404;28;20054;-90
2023/06/12 08:51:33;;;;;;;4.75;4.28;;;;;;;23.20;36.88;96608.53;5002698;28;20101;-91
2023/06/12 08:54:03;;;;;;;6.28;4.18;;;;;;;23.19;36.65;96594.41;5002349;28;20046;-87
2023/06/12 08:56:31;;;;;;;9.18;4.57;;;;;;;23.21;36.48;96602.13;5002887;28;20054;-89
2023/06/12 08:59:01;;;;;;;6.10;4.00;;;;;;;23.26;36.67;96593.34;5003414;28;20530;-86
2023/06/12 09:01:32;;;;;;;5.80;4.20;;;;;;;23.27;36.48;96592.31;5002937;28;20058;-90
2023/06/12 09:04:07;;;;;;;8.82;4.78;;;;;;;23.34;36.71;96590.97;5002797;28;20053;-89
2023/06/12 09:06:38;;;;;;;7.47;4.13;;;;;;;23.45;36.86;96586.47;5003829;28;20122;-89
2023/06/12 09:09:06;;;;;;;4.75;4.15;;;;;;;23.56;36.36;96592.59;5002270;28;20121;-87
2023/06/12 09:11:36;;;;;;;5.93;4.10;;;;;;;23.66;36.02;96579.31;5001931;28;20470;-90
2023/06/12 09:14:05;;;;;;;10.20;4.32;;;;;;;23.72;35.80;96586.22;5001658;28;20064;-89
2023/06/12 09:16:34;;;;;;;4.32;3.90;;;;;;;23.77;35.50;96593.47;5001650;28;20053;-90
2023/06/12 09:19:07;;;;;;;7.07;4.45;;;;;;;23.78;35.47;96595.84;5000587;28;20058;-89
2023/06/12 09:21:36;;;;;;;7.75;4.60;;;;;;;23.81;35.71;96595.31;5000295;28;20116;-87
2023/06/12 09:24:04;;;;;;;6.07;4.60;;;;;;;23.83;35.39;96593.19;5000476;28;20068;-86
2023/06/12 09:26:32;;;;;;;8.35;4.18;;;;;;;23.88;35.05;96578.25;4999659;28;20549;-89
2023/06/12 09:29:01;;;;;;;5.63;4.13;;;;;;;23.92;34.90;96580.13;4999234;28;20054;-87
2023/06/12 09:31:33;;;;;;;5.75;3.75;;;;;;;23.99;34.73;96590.53;4999211;28;20473;-89
2023/06/12 09:34:03;;;;;;;9.88;4.28;;;;;;;24.05;34.36;96597.41;4998732;28;20050;-86
2023/06/12 09:36:32;;;;;;;5.28;3.80;;;;;;;24.06;33.81;96585.72;4998667;28;20073;-88
2023/06/12 09:39:00;;;;;;;5.28;4.32;;;;;;;24.08;33.90;96588.91;4999053;28;20042;-87
2023/06/12 09:41:29;;;;;;;5.22;4.03;;;;;;;24.07;34.05;96579.31;4998942;28;20042;-86
2023/06/12 09:44:02;;;;;;;7.57;4.43;;;;;;;24.06;34.21;96596.38;4999940;28;20089;-85
2023/06/12 09:46:32;;;;;;;10.38;4.43;;;;;;;24.08;34.22;96591.56;4998588;28;20054;-87
2023/06/12 09:49:00;;;;;;;6.53;4.40;;;;;;;24.09;34.13;96590.50;4997699;28;20069;-87
2023/06/12 09:51:32;;;;;;;6.88;4.32;;;;;;;24.13;34.38;96586.22;4996875;28;20058;-89
2023/06/12 09:54:01;;;;;;;11.25;3.92;;;;;;;24.22;34.11;96583.81;4997991;28;20054;-88
2023/06/12 09:56:30;;;;;;;10.98;4.15;;;;;;;24.24;33.57;96579.81;4998525;28;20051;-90
2023/06/12 09:59:00;;;;;;;4.90;3.78;;;;;;;24.25;33.86;96578.75;4997347;28;20506;-87
2023/06/12 10:01:28;;;;;;;5.13;4.07;;;;;;;24.30;34.01;96585.94;5002363;28;20042;-85
2023/06/12 10:03:59;;;;;;;9.60;4.70;;;;;;;24.32;33.64;96581.13;5017581;28;20061;-89
2023/06/12 10:06:32;;;;;;;8.63;4.22;;;;;;;24.33;33.35;96589.94;5018074;28;20050;-88
2023/06/12 10:09:00;;;;;;;6.32;3.83;;;;;;;24.33;33.71;96573.94;5007701;28;20050;-90
2023/06/12 10:11:29;;;;;;;8.27;4.47;;;;;;;24.32;33.26;96570.47;5012588;28;20053;-88
2023/06/12 10:13:58;;;;;;;8.93;4.25;;;;;;;24.31;33.25;96570.72;5019633;28;20066;-87
2023/06/12 10:16:27;;;;;;;3.90;3.55;;;;;;;24.32;33.33;96567.81;5010569;28;20046;-89
2023/06/12 10:18:56;;;;;;;4.70;4.03;;;;;;;24.35;33.22;96569.13;5003076;28;20050;-89
2023/06/12 10:21:27;;;;;;;4.40;3.97;;;;;;;24.41;33.35;96571.50;5001429;28;20065;-88
2023/06/12 10:23:58;;;;;;;4.32;3.92;;;;;;;24.49;33.32;96588.03;5016616;23;20399;-79
2023/06/12 10:26:26;;;;;;;4.72;4.15;;;;;;;24.55;33.20;96569.09;4995232;28;20056;-80
2023/06/12 10:28:55;;;;;;;4.97;3.70;;;;;;;24.63;32.89;96562.41;4995604;28;20466;-78
2023/06/12 10:31:24;;;;;;;6.38;4.13;;;;;;;24.73;32.55;96566.88;4995479;28;20050;-79
2023/06/12 10:34:02;;;;;;;6.22;3.88;;;;;;;24.79;31.76;96563.13;4995403;28;20104;-79
2023/06/12 10:36:41;;;;;;;4.43;3.88;;;;;;;24.83;32.48;96550.84;4999841;28;20549;-79
2023/06/12 10:39:16;;;;;;;4.45;4.05;;;;;;;24.89;32.40;96565.75;5005442;28;20101;-80
2023/06/12 10:41:56;;;;;;;4.38;3.97;;;;;;;24.96;31.42;96560.13;5009967;28;20058;-80
2023/06/12 10:44:41;;;;;;;7.57;4.10;;;;;;;24.97;31.28;96551.84;5006959;28;20069;-80
2023/06/12 10:47:20;;;;;;;5.18;4.35;;;;;;;25.02;31.56;96554.50;4999377;28;20493;-81
2023/06/12 10:49:56;;;;;;;8.15;4.80;;;;;;;25.08;31.29;96556.06;4996659;28;20502;-79
2023/06/12 10:52:24;;;;;;;8.30;4.85;;;;;;;25.11;31.24;96544.03;4996728;28;20046;-80
2023/06/12 10:55:17;;;;;;;6.40;3.80;;;;;;;25.13;31.34;96549.91;4996504;28;20073;-79
2023/06/12 10:57:47;;;;;;;;;;;;;;;25.15;32.01;96538.94;4996900;28;20494;-80
2023/06/12 11:00:17;;;;;;;4.47;4.05;;;;;;;25.15;31.66;96536.28;4996374;28;19925;-79
2023/06/12 11:02:47;;;;;;;4.30;3.90;;;;;;;25.18;32.05;96531.16;4996180;28;20058;-80
2023/06/12 11:05:18;;;;;;;5.90;3.90;;;;;;;25.25;31.51;96525.53;4996300;28;20046;-81
2023/06/12 11:07:48;;;;;;;7.22;3.72;;;;;;;25.28;31.51;96525.00;4996015;28;20054;-79
2023/06/12 11:10:21;;;;;;;4.38;3.85;;;;;;;25.30;31.23;96512.19;4995527;28;20086;-80
2023/06/12 11:12:49;;;;;;;4.72;4.32;;;;;;;25.33;31.23;96522.28;4995047;28;20081;-79
2023/06/12 11:15:21;;;;;;;4.82;3.80;;;;;;;25.39;31.40;96526.53;4995118;28;20054;-79
2023/06/12 11:17:48;;;;;;;5.47;4.20;;;;;;;25.49;31.60;96521.13;4998799;28;20069;-79
2023/06/12 11:20:18;;;;;;;4.95;4.00;;;;;;;25.59;31.38;96514.88;4999814;28;20430;-79
2023/06/12 11:22:47;;;;;;;4.13;3.72;;;;;;;25.68;31.55;96507.06;4996776;28;20054;-80
2023/06/12 11:25:17;;;;;;;6.07;4.47;;;;;;;25.72;30.72;96502.75;4997056;28;20051;-80
2023/06/12 11:27:48;;;;;;;5.57;4.18;;;;;;;25.72;31.08;96513.44;4996072;28;20582;-80
2023/06/12 11:30:16;;;;;;;4.93;4.03;;;;;;;25.70;30.71;96526.28;4996121;28;20050;-80
2023/06/12 11:33:08;;;;;;;4.80;3.83;;;;;;;25.68;30.92;96515.06;4995031;28;20062;-80
2023/06/12 11:35:40;;;;;;;5.72;3.72;;;;;;;25.69;30.41;96504.13;4994230;28;20513;-80
2023/06/12 11:38:08;;;;;;;;;;;;;;;25.75;31.39;96510.19;4995188;28;20125;-79
2023/06/12 11:40:39;;;;;;;4.32;3.92;;;;;;;25.81;30.92;96510.97;4987367;28;19976;-80
2023/06/12 11:43:09;;;;;;;7.55;4.07;;;;;;;25.86;31.18;96511.69;4994716;28;20526;-79
2023/06/12 11:45:41;;;;;;;4.20;3.80;;;;;;;25.89;30.86;96502.38;4994728;28;20101;-79
2023/06/12 11:48:13;;;;;;;10.93;4.28;;;;;;;25.93;30.70;96508.72;4994915;28;20061;-79
2023/06/12 11:50:46;;;;;;;4.18;3.38;;;;;;;25.96;30.59;96518.06;4994965;28;20085;-78
2023/06/12 11:53:14;;;;;;;8.48;4.07;;;;;;;25.98;30.22;96510.56;4997374;28;20395;-78